Terminal Aerodrome Forecast
Issued by NWS Twin Cities, MN

Home | Current Version | Previous Version | Text Only | Print | Product List | Glossary Off
Versions: 1 2 3 4 5 6 7 8 9 10 11 12 13 14 15 16 17 18 19 20 21 22 23 24 25 26 27 28 29 30

000
FTUS43 KMPX 052101 AAA
TAFMSP
TAF AMD
KMSP 052101Z 0521/0624 13014G20KT P6SM SCT025 BKN060
     FM060000 11011KT P6SM OVC025
     FM060400 12010KT P6SM VCSH OVC010
     FM061200 12012G19KT 6SM -SHRA BR SCT010 OVC020
     FM061800 15014G22KT 5SM -SHRA BR SCT020 BKN030=

USA.gov is the U.S. government's official web portal to all federal, state and local government web resources and services.